Time;durP1;ratioP1;P1;durP2;ratioP2;P2;SDS_P1;SDS_P2;PMS_P1;PMS_P2;Temp;Humidity;BMP_temperature;BMP_pressure;BME280_temperature;BME280_humidity;BME280_pressure;Samples;Min_cycle;Max_cycle;Signal;HPM_P1;HPM_P2
2022/11/17 00:00:14;;;;;;;10.87;5.73;;;11.90;1.00;;;;;;5044833;28;20192;-69
2022/11/17 00:02:39;;;;;;;10.67;5.17;;;11.90;1.00;;;;;;5047219;28;20415;-70
2022/11/17 00:05:05;;;;;;;8.67;5.10;;;11.80;1.00;;;;;;5051203;28;20192;-68
2022/11/17 00:07:30;;;;;;;11.90;6.27;;;11.90;1.00;;;;;;5051326;28;20311;-69
2022/11/17 00:09:56;;;;;;;12.33;5.97;;;11.90;1.00;;;;;;5046351;28;20181;-68
2022/11/17 00:15:06;;;;;;;16.97;8.77;;;11.90;1.00;;;;;;5044769;28;20571;-72
2022/11/17 00:17:31;;;;;;;15.03;6.80;;;11.90;1.00;;;;;;5034977;28;20471;-69
2022/11/17 00:22:41;;;;;;;4.63;3.40;;;11.90;1.00;;;;;;5046897;28;20220;-68
2022/11/17 00:25:07;;;;;;;7.80;4.50;;;11.90;1.00;;;;;;5040530;28;20451;-69
2022/11/17 00:27:32;;;;;;;10.70;6.00;;;11.90;1.00;;;;;;5047640;28;20193;-71
2022/11/17 00:29:58;;;;;;;11.33;3.63;;;11.80;1.00;;;;;;5046187;28;20212;-68
2022/11/17 00:35:07;;;;;;;6.30;3.53;;;11.80;1.00;;;;;;5041146;28;20254;-69
2022/11/17 00:37:37;;;;;;;7.83;4.80;;;11.80;1.00;;;;;;5034598;28;20452;-72
2022/11/17 00:40:06;;;;;;;6.27;3.37;;;11.80;1.00;;;;;;5044689;28;20263;-68
2022/11/17 00:42:31;;;;;;;7.03;3.40;;;11.70;1.00;;;;;;5034179;28;20499;-72
2022/11/17 00:44:57;;;;;;;5.53;3.43;;;11.70;1.00;;;;;;5041119;28;20538;-66
2022/11/17 00:47:22;;;;;;;11.13;5.70;;;11.60;1.00;;;;;;5049313;28;20221;-68
2022/11/17 00:49:48;;;;;;;8.40;3.77;;;11.60;1.00;;;;;;5047905;28;20275;-71
2022/11/17 00:52:13;;;;;;;5.90;3.40;;;11.60;1.00;;;;;;5050575;28;20177;-69
2022/11/17 00:54:39;;;;;;;7.90;3.77;;;11.60;1.00;;;;;;5040682;28;20186;-69
2022/11/17 00:57:04;;;;;;;12.50;6.03;;;11.60;1.00;;;;;;5040937;28;20209;-65
2022/11/17 00:59:30;;;;;;;6.50;4.33;;;11.60;1.00;;;;;;5040484;28;20239;-68
2022/11/17 01:01:55;;;;;;;7.50;3.93;;;11.70;1.00;;;;;;5037068;28;20251;-70
2022/11/17 01:04:21;;;;;;;10.33;3.47;;;11.60;1.00;;;;;;5036804;28;20180;-71
2022/11/17 01:06:48;;;;;;;10.53;4.77;;;10.90;1.00;;;;;;5048441;28;20227;-69
2022/11/17 01:09:22;;;;;;;5.80;3.57;;;11.60;1.00;;;;;;5036490;28;20226;-70
2022/11/17 01:11:49;;;;;;;9.47;4.43;;;11.50;1.00;;;;;;5036871;28;20463;-70
2022/11/17 01:14:21;;;;;;;7.57;3.57;;;11.50;1.00;;;;;;5040952;28;20878;-70
2022/11/17 01:16:46;;;;;;;6.50;3.47;;;11.40;1.00;;;;;;5031988;28;20464;-67
2022/11/17 01:19:14;;;;;;;6.87;3.50;;;11.40;1.00;;;;;;5042824;28;20788;-69
2022/11/17 01:21:39;;;;;;;6.30;3.80;;;11.40;1.00;;;;;;5036967;28;20182;-68
2022/11/17 01:24:05;;;;;;;6.23;3.40;;;11.50;1.00;;;;;;5042929;28;20791;-70
2022/11/17 01:26:33;;;;;;;6.87;3.80;;;11.50;1.00;;;;;;5049950;28;20227;-69
2022/11/17 01:29:00;;;;;;;8.37;3.10;;;11.50;1.00;;;;;;5047833;28;20185;-69
2022/11/17 01:31:48;;;;;;;5.47;3.07;;;11.60;1.00;;;;;;5048935;28;20450;-67
2022/11/17 01:34:13;;;;;;;7.13;3.73;;;11.60;1.00;;;;;;5047816;28;20518;-68
2022/11/17 01:39:27;;;;;;;6.23;3.30;;;11.60;1.00;;;;;;5033971;28;20193;-69
2022/11/17 01:41:53;;;;;;;4.27;3.03;;;11.60;1.00;;;;;;5039126;28;20918;-70
2022/11/17 01:44:50;;;;;;;4.37;2.87;;;11.60;1.00;;;;;;5037082;28;20401;-68
2022/11/17 01:47:27;;;;;;;3.40;2.60;;;11.60;1.00;;;;;;5041681;28;20615;-70
2022/11/17 01:50:08;;;;;;;4.93;2.90;;;11.60;1.00;;;;;;5037955;28;20459;-67
2022/11/17 01:52:37;;;;;;;7.27;3.40;;;11.70;1.00;;;;;;5048426;28;20777;-70
2022/11/17 01:55:04;;;;;;;4.03;2.83;;;11.70;1.00;;;;;;5037449;28;20452;-69
2022/11/17 01:57:39;;;;;;;10.40;2.97;;;11.70;1.00;;;;;;5041075;28;20869;-69
2022/11/17 02:00:07;;;;;;;6.00;3.20;;;11.60;1.00;;;;;;5047893;28;20641;-69
2022/11/17 02:02:33;;;;;;;3.43;3.00;;;11.60;1.00;;;;;;5040207;28;20491;-69
2022/11/17 02:05:23;;;;;;;4.30;2.60;;;11.60;1.00;;;;;;5047627;28;20424;-69
2022/11/17 02:07:53;;;;;;;4.27;3.07;;;11.50;1.00;;;;;;5042862;28;20462;-70
2022/11/17 02:10:19;;;;;;;5.17;2.83;;;11.50;1.00;;;;;;5034658;28;20420;-70
2022/11/17 02:12:46;;;;;;;4.20;3.10;;;11.60;1.00;;;;;;5035935;28;20439;-69
2022/11/17 02:15:12;;;;;;;5.70;2.80;;;11.60;1.00;;;;;;5041448;28;20438;-71
2022/11/17 02:17:41;;;;;;;4.97;2.90;;;11.60;1.00;;;;;;5038829;28;20916;-69
2022/11/17 02:20:11;;;;;;;5.43;2.30;;;11.60;1.00;;;;;;5040088;28;20181;-68
2022/11/17 02:23:14;;;;;;;4.40;2.73;;;11.70;1.00;;;;;;5038332;28;21012;-69
2022/11/17 02:25:50;;;;;;;6.03;2.60;;;11.80;1.00;;;;;;5036434;28;20458;-68
2022/11/17 02:28:27;;;;;;;5.90;2.97;;;11.80;1.00;;;;;;5046071;28;20411;-67
2022/11/17 02:31:17;;;;;;;2.97;2.67;;;11.80;1.00;;;;;;5045912;28;20473;-66
2022/11/17 02:34:04;;;;;;;5.13;2.70;;;11.80;1.00;;;;;;5031971;28;20432;-69
2022/11/17 02:36:43;;;;;;;5.83;3.10;;;11.70;1.00;;;;;;5048288;28;20451;-72
2022/11/17 02:39:21;;;;;;;3.30;2.70;;;11.70;1.00;;;;;;5044591;28;20465;-70
2022/11/17 02:45:19;;;;;;;5.17;3.10;;;11.60;1.00;;;;;;5038780;28;20442;-69
2022/11/17 02:47:49;;;;;;;5.60;2.80;;;11.60;1.00;;;;;;5038550;28;20432;-69
2022/11/17 02:50:17;;;;;;;4.93;3.00;;;11.60;1.00;;;;;;5040731;28;20504;-69
2022/11/17 02:52:42;;;;;;;4.50;2.90;;;11.60;1.00;;;;;;5046597;28;20914;-69
2022/11/17 02:55:09;;;;;;;3.53;2.50;;;11.70;1.00;;;;;;5040748;28;20446;-69
2022/11/17 02:57:37;;;;;;;4.20;2.57;;;11.70;1.00;;;;;;5042260;28;20315;-70
2022/11/17 03:00:09;;;;;;;3.87;2.67;;;11.70;1.00;;;;;;5047665;28;20439;-70
2022/11/17 03:02:38;;;;;;;7.70;3.37;;;11.80;1.00;;;;;;5031862;28;20495;-69
2022/11/17 03:05:26;;;;;;;4.70;2.63;;;11.80;1.00;;;;;;5039860;28;20561;-69
2022/11/17 03:08:12;;;;;;;3.40;2.53;;;11.90;1.00;;;;;;5039576;28;20431;-69
2022/11/17 03:10:59;;;;;;;6.10;2.93;;;11.90;1.00;;;;;;5039269;28;20783;-72
2022/11/17 03:13:47;;;;;;;5.43;2.50;;;11.80;1.00;;;;;;5035986;28;20546;-70
2022/11/17 03:16:19;;;;;;;5.70;2.80;;;11.90;1.00;;;;;;5047846;28;20432;-70
2022/11/17 03:18:59;;;;;;;4.37;3.00;;;11.80;1.00;;;;;;5039715;28;20469;-69
2022/11/17 03:21:46;;;;;;;3.10;2.47;;;11.70;1.00;;;;;;5050108;28;20469;-71
2022/11/17 03:24:22;;;;;;;3.00;2.40;;;11.60;1.00;;;;;;5043702;28;20435;-70
2022/11/17 03:26:54;;;;;;;5.47;2.87;;;11.60;1.00;;;;;;5045505;28;20454;-68
2022/11/17 03:29:22;;;;;;;3.70;2.30;;;11.70;1.00;;;;;;5045605;28;20906;-69
2022/11/17 03:31:55;;;;;;;4.07;2.67;;;11.70;1.00;;;;;;5049500;28;20946;-69
2022/11/17 03:34:23;;;;;;;3.27;2.57;;;11.70;1.00;;;;;;5050868;28;20502;-71
2022/11/17 03:36:55;;;;;;;3.60;3.03;;;11.70;1.00;;;;;;5051176;28;20455;-69
2022/11/17 03:39:29;;;;;;;4.03;2.50;;;11.80;1.00;;;;;;5042929;28;20467;-69
2022/11/17 03:42:12;;;;;;;4.00;2.53;;;11.70;1.00;;;;;;5050144;28;20435;-69
2022/11/17 03:44:40;;;;;;;6.27;2.87;;;11.70;1.00;;;;;;5047281;28;20518;-69
2022/11/17 03:47:08;;;;;;;3.13;2.70;;;11.60;1.00;;;;;;5042640;28;20491;-69
2022/11/17 03:49:39;;;;;;;5.53;2.77;;;11.60;1.00;;;;;;5051741;28;20416;-70
2022/11/17 03:52:05;;;;;;;3.70;2.37;;;11.50;1.00;;;;;;5051109;28;20411;-69
2022/11/17 03:54:32;;;;;;;4.07;2.43;;;11.50;1.00;;;;;;5043242;28;20419;-69
2022/11/17 03:57:20;;;;;;;3.30;2.43;;;11.50;1.00;;;;;;5050796;28;20471;-68
2022/11/17 03:59:56;;;;;;;2.80;2.33;;;11.60;1.00;;;;;;5051266;28;20426;-71
2022/11/17 04:02:23;;;;;;;5.73;2.60;;;11.50;1.00;;;;;;5039004;28;20401;-68
2022/11/17 04:05:04;;;;;;;3.80;2.70;;;11.50;1.00;;;;;;5049592;28;20416;-69
2022/11/17 04:07:30;;;;;;;6.03;2.70;;;11.50;1.00;;;;;;5039814;28;20454;-70
2022/11/17 04:09:56;;;;;;;4.33;2.17;;;11.50;1.00;;;;;;5049768;28;20404;-73
2022/11/17 04:17:50;;;;;;;4.67;2.40;;;11.50;1.00;;;;;;5047100;28;20501;-71
2022/11/17 04:20:16;;;;;;;3.27;2.43;;;11.50;1.00;;;;;;5034622;28;21049;-69
2022/11/17 04:22:41;;;;;;;4.07;2.60;;;11.50;1.00;;;;;;5045842;28;20185;-69
2022/11/17 04:25:07;;;;;;;4.13;2.10;;;11.60;1.00;;;;;;5040926;28;20195;-69
2022/11/17 04:30:17;;;;;;;4.90;2.43;;;11.60;1.00;;;;;;5035197;28;20447;-70
2022/11/17 04:32:42;;;;;;;5.10;2.50;;;11.60;1.00;;;;;;5048427;28;20419;-69
2022/11/17 04:35:08;;;;;;;4.90;2.87;;;11.50;1.00;;;;;;5046924;28;20189;-69
2022/11/17 04:37:34;;;;;;;7.57;2.60;;;11.40;1.00;;;;;;5050033;28;20720;-69
2022/11/17 04:39:59;;;;;;;2.70;2.47;;;11.20;1.00;;;;;;5043061;28;20227;-71
2022/11/17 04:42:25;;;;;;;3.03;2.23;;;11.10;1.00;;;;;;5043528;28;20180;-68
2022/11/17 04:44:50;;;;;;;3.67;2.77;;;11.10;1.00;;;;;;5039577;28;20173;-68
2022/11/17 04:47:16;;;;;;;5.10;2.53;;;11.20;1.00;;;;;;5042633;28;20247;-70
2022/11/17 04:49:41;;;;;;;5.53;2.30;;;11.20;1.00;;;;;;5048815;28;20307;-71
2022/11/17 04:52:07;;;;;;;3.70;2.30;;;11.30;1.00;;;;;;5045039;28;20600;-69
2022/11/17 04:54:32;;;;;;;3.53;2.53;;;11.30;1.00;;;;;;5043620;28;20181;-71
2022/11/17 04:56:58;;;;;;;3.90;2.40;;;11.40;1.00;;;;;;5049931;28;20204;-65
2022/11/17 04:59:24;;;;;;;5.17;3.17;;;11.40;1.00;;;;;;5040955;28;20247;-72
2022/11/17 05:01:49;;;;;;;5.87;3.00;;;11.30;1.00;;;;;;5038765;28;20231;-71
2022/11/17 05:07:02;;;;;;;6.23;3.20;;;11.20;1.00;;;;;;5045609;28;20266;-68
2022/11/17 05:09:28;;;;;;;3.47;2.60;;;11.20;1.00;;;;;;5042001;28;20870;-69
2022/11/17 05:14:37;;;;;;;5.30;2.40;;;11.20;1.30;;;;;;5037709;28;20567;-69
2022/11/17 05:17:08;;;;;;;3.53;2.60;;;11.20;1.00;;;;;;5040298;28;20455;-69
2022/11/17 05:19:44;;;;;;;3.83;2.57;;;11.20;1.00;;;;;;5048821;28;20211;-68
2022/11/17 05:25:05;;;;;;;3.23;2.90;;;11.10;4.30;;;;;;5030632;28;20455;-69
2022/11/17 05:27:32;;;;;;;2.37;2.17;;;11.10;4.90;;;;;;5039412;28;20867;-69
2022/11/17 05:29:58;;;;;;;6.30;2.53;;;11.10;3.60;;;;;;5050081;28;20410;-68
2022/11/17 05:32:23;;;;;;;5.73;2.60;;;11.20;4.60;;;;;;5048994;28;21241;-69
2022/11/17 05:34:49;;;;;;;2.37;2.17;;;11.20;4.50;;;;;;5048082;28;20231;-69
2022/11/17 05:37:15;;;;;;;5.33;2.77;;;11.10;3.50;;;;;;5048959;28;20201;-69
2022/11/17 05:39:40;;;;;;;3.93;2.77;;;11.20;1.70;;;;;;5030726;28;20178;-69
2022/11/17 05:42:06;;;;;;;3.50;2.50;;;11.30;1.00;;;;;;5049459;28;20169;-69
2022/11/17 05:44:31;;;;;;;3.77;2.80;;;11.30;1.00;;;;;;5037059;28;20183;-70
2022/11/17 05:46:57;;;;;;;4.50;2.80;;;11.30;1.00;;;;;;5048049;28;20583;-67
2022/11/17 05:49:23;;;;;;;8.77;2.47;;;11.30;1.00;;;;;;5034061;28;20564;-70
2022/11/17 05:51:48;;;;;;;5.50;2.57;;;11.40;1.00;;;;;;5037536;28;20276;-69
2022/11/17 05:54:14;;;;;;;3.53;2.20;;;11.50;1.00;;;;;;5035074;28;20196;-69
2022/11/17 05:56:45;;;;;;;2.63;2.00;;;11.60;1.00;;;;;;5045046;28;20204;-69
2022/11/17 05:59:20;;;;;;;2.23;2.00;;;11.50;1.00;;;;;;5047193;28;20201;-69
2022/11/17 06:02:08;;;;;;;3.40;1.83;;;11.70;1.00;;;;;;5047348;28;20427;-69
2022/11/17 06:04:34;;;;;;;2.70;1.67;;;11.70;1.00;;;;;;5025154;28;20421;-70
2022/11/17 06:07:00;;;;;;;2.37;1.83;;;11.70;1.00;;;;;;5043544;28;20907;-69
2022/11/17 06:09:28;;;;;;;2.37;2.10;;;11.80;1.00;;;;;;5044399;28;20521;-68
2022/11/17 06:11:53;;;;;;;3.50;2.00;;;11.80;1.00;;;;;;5046621;28;20450;-69
2022/11/17 06:14:19;;;;;;;4.33;2.00;;;11.80;1.00;;;;;;5036930;28;20920;-69
2022/11/17 06:16:47;;;;;;;2.80;1.90;;;11.70;1.00;;;;;;5041435;28;20269;-69
2022/11/17 06:19:23;;;;;;;3.20;2.47;;;11.60;1.00;;;;;;5028369;28;20293;-69
2022/11/17 06:21:50;;;;;;;2.90;2.03;;;11.50;1.00;;;;;;5037508;28;20895;-72
2022/11/17 06:24:16;;;;;;;2.93;2.10;;;11.60;1.00;;;;;;5037782;28;20471;-69
2022/11/17 06:26:42;;;;;;;2.67;1.90;;;11.50;2.10;;;;;;5042636;28;20537;-70
2022/11/17 06:29:09;;;;;;;3.50;2.00;;;11.60;2.00;;;;;;5031725;28;20500;-71
2022/11/17 06:31:37;;;;;;;2.40;1.80;;;11.60;1.80;;;;;;5030996;28;20535;-69
2022/11/17 06:34:03;;;;;;;6.37;2.07;;;11.50;3.40;;;;;;5046508;28;20559;-69
2022/11/17 06:36:29;;;;;;;3.10;2.00;;;11.60;4.00;;;;;;5040577;28;20455;-68
2022/11/17 06:38:55;;;;;;;8.37;4.20;;;11.60;4.20;;;;;;5038929;28;20448;-68
2022/11/17 06:41:21;;;;;;;9.00;3.87;;;11.60;6.00;;;;;;5030323;28;20425;-70
2022/11/17 06:43:46;;;;;;;4.63;3.27;;;11.60;4.80;;;;;;5032815;28;20177;-70
2022/11/17 06:46:12;;;;;;;4.50;2.90;;;11.70;3.50;;;;;;5041832;28;20206;-70
2022/11/17 06:48:38;;;;;;;3.00;2.60;;;11.60;4.50;;;;;;5033340;28;20174;-70
2022/11/17 06:51:04;;;;;;;2.47;2.27;;;11.60;5.70;;;;;;5047401;28;20656;-68
2022/11/17 06:53:32;;;;;;;3.00;2.63;;;11.40;7.00;;;;;;5048056;28;20181;-70
2022/11/17 06:58:30;;;;;;;5.03;2.50;;;11.40;9.00;;;;;;5051064;28;20459;-69
2022/11/17 07:01:02;;;;;;;7.07;2.50;;;11.50;9.30;;;;;;5050168;28;20476;-69
2022/11/17 07:03:27;;;;;;;3.67;2.30;;;11.50;8.70;;;;;;5039560;28;20413;-70
2022/11/17 07:05:53;;;;;;;2.97;2.20;;;11.50;9.00;;;;;;5043466;28;20488;-68
2022/11/17 07:08:21;;;;;;;3.33;2.23;;;11.60;9.80;;;;;;5049422;28;20185;-69
2022/11/17 07:10:53;;;;;;;2.63;2.13;;;11.70;9.50;;;;;;5046488;28;20238;-69
2022/11/17 07:13:22;;;;;;;4.50;2.40;;;11.70;7.70;;;;;;5048074;28;20494;-69
2022/11/17 07:15:49;;;;;;;4.87;2.57;;;11.70;7.00;;;;;;5049772;28;20474;-69
2022/11/17 07:18:19;;;;;;;5.70;2.30;;;11.80;7.50;;;;;;5046780;28;21059;-68
2022/11/17 07:20:46;;;;;;;5.60;2.10;;;11.90;6.80;;;;;;5028796;28;20423;-70
2022/11/17 07:23:13;;;;;;;3.30;1.93;;;11.90;3.40;;;;;;5050509;28;20415;-69
2022/11/17 07:25:39;;;;;;;3.10;1.93;;;11.90;1.00;;;;;;5034108;28;20456;-69
2022/11/17 07:28:05;;;;;;;3.13;1.83;;;12.00;1.00;;;;;;5034983;28;20458;-69
2022/11/17 07:30:30;;;;;;;3.70;1.70;;;12.00;1.00;;;;;;5038714;28;20470;-69
2022/11/17 07:32:59;;;;;;;2.97;1.90;;;12.10;1.00;;;;;;5042211;28;20793;-69
2022/11/17 07:35:25;;;;;;;2.17;1.77;;;12.20;1.00;;;;;;5051835;28;20177;-69
2022/11/17 07:37:55;;;;;;;6.43;2.10;;;12.20;1.00;;;;;;5033931;28;20452;-69
2022/11/17 07:40:21;;;;;;;2.00;1.50;;;12.30;1.00;;;;;;5036746;28;20808;-70
2022/11/17 07:42:49;;;;;;;2.27;1.77;;;12.30;1.00;;;;;;5051692;28;20419;-70
2022/11/17 07:45:15;;;;;;;2.40;1.77;;;12.40;1.00;;;;;;5051391;28;20269;-70
2022/11/17 07:47:40;;;;;;;8.40;1.90;;;12.40;1.00;;;;;;4987689;28;1363933;-70
2022/11/17 07:50:06;;;;;;;3.10;1.50;;;12.70;1.00;;;;;;5033853;28;20236;-71
2022/11/17 07:52:32;;;;;;;3.00;1.97;;;12.90;1.00;;;;;;5041239;28;20200;-70
2022/11/17 07:54:58;;;;;;;2.63;2.00;;;12.90;1.00;;;;;;5051499;28;20443;-71
2022/11/17 07:57:24;;;;;;;3.10;2.27;;;12.90;1.00;;;;;;5050729;28;20237;-70
2022/11/17 07:59:50;;;;;;;3.90;2.17;;;12.90;1.00;;;;;;5050962;28;20637;-71
2022/11/17 08:02:15;;;;;;;3.33;2.00;;;13.00;1.00;;;;;;5052860;28;20451;-71
2022/11/17 08:04:41;;;;;;;8.90;2.40;;;13.00;1.00;;;;;;5053380;28;20182;-71
2022/11/17 08:07:07;;;;;;;4.00;2.20;;;13.10;1.00;;;;;;5052670;28;20668;-72
2022/11/17 08:09:32;;;;;;;4.37;2.20;;;13.10;1.00;;;;;;5050015;28;20787;-70
2022/11/17 08:11:58;;;;;;;4.60;2.37;;;13.20;1.00;;;;;;5035359;28;20188;-70
2022/11/17 08:14:24;;;;;;;4.23;2.63;;;13.30;1.00;;;;;;5049938;28;20204;-71
2022/11/17 08:16:49;;;;;;;4.50;2.87;;;13.30;1.00;;;;;;5042682;28;20281;-71
2022/11/17 08:19:15;;;;;;;6.13;2.97;;;13.40;1.00;;;;;;5050889;28;20583;-70
2022/11/17 08:21:41;;;;;;;8.53;2.20;;;13.40;1.00;;;;;;5053301;28;20170;-71
2022/11/17 08:24:07;;;;;;;3.63;2.10;;;13.50;1.00;;;;;;5037315;28;20241;-70
2022/11/17 08:26:33;;;;;;;4.83;2.20;;;13.60;1.00;;;;;;5035325;28;20232;-70
2022/11/17 08:29:00;;;;;;;4.97;2.03;;;;;;;;;;5046239;28;20463;-72
2022/11/17 08:31:26;;;;;;;4.67;2.10;;;13.70;1.00;;;;;;5046306;28;20279;-70
2022/11/17 08:33:52;;;;;;;4.53;2.00;;;13.70;1.00;;;;;;5051440;28;20522;-70
2022/11/17 08:36:17;;;;;;;3.97;1.80;;;13.70;1.00;;;;;;5039339;28;20201;-70
2022/11/17 08:38:43;;;;;;;3.70;1.90;;;13.60;1.00;;;;;;5046281;28;20251;-71
2022/11/17 08:41:09;;;;;;;4.33;1.90;;;13.40;1.00;;;;;;5048360;28;20189;-72
2022/11/17 08:43:35;;;;;;;3.23;1.90;;;13.40;1.00;;;;;;5052072;28;20173;-71
2022/11/17 08:46:03;;;;;;;4.13;1.70;;;13.30;1.00;;;;;;5047278;28;20797;-71
2022/11/17 08:48:30;;;;;;;6.23;2.00;;;13.40;1.00;;;;;;5047081;28;20572;-70
2022/11/17 08:50:56;;;;;;;2.33;1.50;;;13.20;1.00;;;;;;5043417;28;20435;-71
2022/11/17 08:53:22;;;;;;;5.80;2.10;;;13.20;1.00;;;;;;5042670;28;20424;-71
2022/11/17 08:55:49;;;;;;;6.23;2.60;;;13.20;1.00;;;;;;5043362;28;20516;-71
2022/11/17 08:58:15;;;;;;;6.70;1.90;;;13.30;1.00;;;;;;5051080;28;20455;-71
2022/11/17 09:00:41;;;;;;;4.20;2.50;;;13.40;1.00;;;;;;5039965;28;20420;-71
2022/11/17 09:03:08;;;;;;;2.90;1.70;;;13.40;1.00;;;;;;5048511;28;20431;-72
2022/11/17 09:05:39;;;;;;;5.63;1.60;;;13.60;1.00;;;;;;5047533;28;20248;-72
2022/11/17 09:08:05;;;;;;;7.10;1.80;;;13.60;1.00;;;;;;5042886;28;20424;-71
2022/11/17 09:10:31;;;;;;;3.80;1.80;;;13.70;1.00;;;;;;5044321;28;20514;-72
2022/11/17 09:12:57;;;;;;;6.23;2.10;;;13.70;1.00;;;;;;5042757;28;20499;-74
2022/11/17 09:15:23;;;;;;;5.07;1.80;;;14.20;1.00;;;;;;5044083;28;20228;-72
2022/11/17 09:17:49;;;;;;;7.47;1.80;;;14.10;1.00;;;;;;5037625;28;20885;-72
2022/11/17 09:20:16;;;;;;;7.43;1.40;;;14.20;1.00;;;;;;5039852;28;20464;-72
2022/11/17 09:22:41;;;;;;;5.90;1.80;;;14.20;1.00;;;;;;5040468;28;20431;-71
2022/11/17 09:25:07;;;;;;;4.27;1.60;;;14.30;1.00;;;;;;5040756;28;20434;-73
2022/11/17 09:27:33;;;;;;;3.03;1.50;;;14.50;1.00;;;;;;5036216;28;20190;-72
2022/11/17 09:29:59;;;;;;;9.40;2.40;;;14.40;1.00;;;;;;5041309;28;20416;-71
2022/11/17 09:32:25;;;;;;;3.57;1.53;;;14.50;1.00;;;;;;5030264;28;20182;-72
2022/11/17 09:34:50;;;;;;;3.77;1.60;;;14.60;1.00;;;;;;5047027;28;20485;-71
2022/11/17 09:37:16;;;;;;;8.17;2.07;;;14.70;1.00;;;;;;5036241;28;20204;-72
2022/11/17 09:39:42;;;;;;;8.67;2.23;;;14.70;1.00;;;;;;5046490;28;20188;-72
2022/11/17 09:42:13;;;;;;;6.33;1.50;;;14.80;1.00;;;;;;5030286;28;20170;-72
2022/11/17 09:44:52;;;;;;;8.20;1.80;;;14.70;1.00;;;;;;5046430;28;20215;-71
2022/11/17 09:47:32;;;;;;;7.37;1.67;;;14.60;1.00;;;;;;5041050;28;21057;-71
2022/11/17 09:50:01;;;;;;;8.37;2.47;;;14.40;1.00;;;;;;5047899;28;20558;-72
2022/11/17 09:52:58;;;;;;;9.53;1.70;;;13.90;1.00;;;;;;5050150;28;20431;-72
2022/11/17 09:55:50;;;;;;;9.00;2.20;;;13.10;1.00;;;;;;5046201;28;20409;-72
2022/11/17 09:58:38;;;;;;;10.93;1.73;;;13.00;1.00;;;;;;5029127;28;20463;-72
2022/11/17 10:01:04;;;;;;;9.00;1.73;;;12.70;1.00;;;;;;5031765;28;20439;-74
2022/11/17 10:03:32;;;;;;;4.80;1.57;;;12.40;1.00;;;;;;5041566;28;20527;-72
2022/11/17 10:06:00;;;;;;;7.40;1.80;;;12.20;5.40;;;;;;5044622;28;20567;-71
2022/11/17 10:08:41;;;;;;;7.43;1.80;;;12.10;10.00;;;;;;5040227;28;21019;-72
2022/11/17 10:11:30;;;;;;;9.90;1.70;;;12.10;15.20;;;;;;5047063;28;20909;-72
2022/11/17 10:14:16;;;;;;;13.37;2.03;;;12.10;18.40;;;;;;5050290;28;20407;-73
2022/11/17 10:16:43;;;;;;;10.53;2.27;;;12.10;20.90;;;;;;5042424;28;20436;-73
2022/11/17 10:19:08;;;;;;;7.80;2.30;;;12.00;24.10;;;;;;5050824;28;20455;-72
2022/11/17 10:21:36;;;;;;;12.07;2.07;;;12.00;33.00;;;;;;5051302;28;20400;-73
2022/11/17 10:24:01;;;;;;;13.27;2.50;;;12.00;39.60;;;;;;5046826;28;20234;-72
2022/11/17 10:26:27;;;;;;;11.43;2.60;;;12.10;48.20;;;;;;5049555;28;20439;-75
2022/11/17 10:29:05;;;;;;;6.50;2.07;;;12.30;60.90;;;;;;5047800;28;20173;-75
2022/11/17 10:31:43;;;;;;;11.70;2.77;;;12.50;40.00;;;;;;5041882;28;20251;-76
2022/11/17 10:34:11;;;;;;;7.50;1.93;;;12.60;40.10;;;;;;5042116;28;20782;-73
2022/11/17 10:36:46;;;;;;;7.90;2.47;;;12.60;37.90;;;;;;5049723;28;20513;-72
2022/11/17 10:39:32;;;;;;;24.97;6.17;;;12.50;40.10;;;;;;5050233;28;20459;-74
2022/11/17 10:42:00;;;;;;;16.43;4.20;;;12.20;39.90;;;;;;5051056;28;20419;-73
2022/11/17 10:44:30;;;;;;;8.40;2.00;;;12.20;39.80;;;;;;5047683;28;20430;-75
2022/11/17 10:46:58;;;;;;;14.70;2.90;;;11.90;37.40;;;;;;5049556;28;20501;-73
2022/11/17 10:49:32;;;;;;;8.30;1.53;;;11.70;39.60;;;;;;5034885;28;20413;-73
2022/11/17 10:52:10;;;;;;;9.97;2.57;;;11.50;39.20;;;;;;5040737;28;20494;-73
2022/11/17 10:54:36;;;;;;;3.20;1.50;;;11.40;25.10;;;;;;5041673;28;20415;-72
2022/11/17 10:57:06;;;;;;;5.47;1.60;;;11.40;39.00;;;;;;5050339;28;20775;-72
2022/11/17 10:59:45;;;;;;;8.57;2.00;;;11.60;39.30;;;;;;5046594;28;20432;-73
2022/11/17 11:02:29;;;;;;;5.90;1.53;;;12.00;39.60;;;;;;5029508;28;20403;-72
2022/11/17 11:05:10;;;;;;;11.30;1.90;;;12.10;39.70;;;;;;5040299;28;20435;-73
2022/11/17 11:07:36;;;;;;;7.63;1.80;;;12.10;37.50;;;;;;5049721;28;20420;-72
2022/11/17 11:10:22;;;;;;;5.13;1.70;;;13.60;43.60;;;;;;5049313;28;20400;-73
2022/11/17 11:13:24;;;;;;;7.83;2.10;;;13.80;4.10;;;;;;5051696;28;20407;-74
2022/11/17 11:15:52;;;;;;;7.60;1.93;;;13.30;1.00;;;;;;5041745;28;20447;-72
2022/11/17 11:18:19;;;;;;;6.47;1.50;;;13.10;12.10;;;;;;5038755;28;20501;-73
2022/11/17 11:20:48;;;;;;;8.10;2.30;;;12.90;1.20;;;;;;5043601;28;20423;-73
2022/11/17 11:23:34;;;;;;;3.87;1.70;;;12.60;17.60;;;;;;5032032;28;20941;-73
2022/11/17 11:26:29;;;;;;;5.33;1.60;;;13.30;8.10;;;;;;5040157;28;20427;-73
2022/11/17 11:29:19;;;;;;;6.40;1.43;;;13.40;1.00;;;;;;5049313;28;20422;-72
2022/11/17 11:31:55;;;;;;;5.23;1.70;;;15.10;1.00;;;;;;5050372;28;20512;-74
2022/11/17 11:34:26;;;;;;;3.47;1.77;;;16.50;1.00;;;;;;5050155;28;20402;-73
2022/11/17 11:36:58;;;;;;;8.10;1.80;;;16.40;1.00;;;;;;5050906;28;20942;-72
2022/11/17 11:40:00;;;;;;;6.07;1.30;;;16.40;1.00;;;;;;5047312;28;20528;-73
2022/11/17 11:42:46;;;;;;;6.10;1.93;;;18.10;1.00;;;;;;5053353;28;20429;-74
2022/11/17 11:45:20;;;;;;;5.20;1.83;;;18.20;1.00;;;;;;5054377;28;20423;-74
2022/11/17 11:48:12;;;;;;;3.63;1.80;;;21.00;1.00;;;;;;5045380;28;20529;-74
2022/11/17 11:50:58;;;;;;;8.33;2.10;;;20.90;1.00;;;;;;5054531;28;20422;-72
2022/11/17 11:53:27;;;;;;;7.60;2.10;;;18.80;1.00;;;;;;5053920;28;20427;-73
2022/11/17 11:56:27;;;;;;;6.33;2.40;;;18.80;1.00;;;;;;5053350;28;20447;-75
2022/11/17 11:58:59;;;;;;;5.97;2.00;;;20.30;1.00;;;;;;5054794;28;20470;-74
2022/11/17 12:01:26;;;;;;;7.37;1.80;;;21.90;1.00;;;;;;5035297;28;20776;-73
2022/11/17 12:04:16;;;;;;;5.23;1.70;;;21.60;1.00;;;;;;5032345;28;20408;-73
2022/11/17 12:06:52;;;;;;;5.10;1.60;;;21.70;1.00;;;;;;5032605;28;20824;-73
2022/11/17 12:09:24;;;;;;;5.73;2.27;;;20.00;1.00;;;;;;5052625;28;20813;-74
2022/11/17 12:12:00;;;;;;;5.87;1.70;;;18.90;1.00;;;;;;5053994;28;20408;-75
2022/11/17 12:14:36;;;;;;;8.53;2.17;;;17.50;1.00;;;;;;5055747;28;20446;-74
2022/11/17 12:17:09;;;;;;;9.73;2.23;;;16.60;1.00;;;;;;5042320;28;20815;-75
2022/11/17 12:19:49;;;;;;;6.87;2.07;;;17.20;1.00;;;;;;5031956;28;20421;-75
2022/11/17 12:22:24;;;;;;;4.67;1.90;;;17.50;1.00;;;;;;5048269;28;20416;-74
2022/11/17 12:24:56;;;;;;;5.00;1.90;;;19.00;1.00;;;;;;5051000;28;20407;-77
2022/11/17 12:27:31;;;;;;;8.50;1.87;;;21.30;1.00;;;;;;5053753;28;20535;-74
2022/11/17 12:29:57;;;;;;;8.70;1.90;;;22.00;1.00;;;;;;5051597;28;20415;-74
2022/11/17 12:32:47;;;;;;;5.60;1.80;;;22.20;1.00;;;;;;5051115;28;20753;-73
2022/11/17 12:35:24;;;;;;;6.17;1.83;;;22.30;1.00;;;;;;5035849;28;20169;-74
2022/11/17 12:38:11;;;;;;;6.40;2.40;;;21.70;1.00;;;;;;5037968;28;20542;-73
2022/11/17 12:40:37;;;;;;;6.83;2.03;;;20.30;1.00;;;;;;5052352;28;20419;-73
2022/11/17 12:43:14;;;;;;;8.20;2.00;;;19.70;1.00;;;;;;5053600;28;20413;-74
2022/11/17 12:45:52;;;;;;;9.00;1.70;;;19.00;1.00;;;;;;5045833;28;20211;-73
2022/11/17 12:48:43;;;;;;;4.47;2.00;;;18.10;1.00;;;;;;5047629;28;20633;-73
2022/11/17 12:51:14;;;;;;;5.67;1.70;;;17.80;1.00;;;;;;5053397;28;20464;-74
2022/11/17 12:54:12;;;;;;;5.47;1.90;;;17.60;1.00;;;;;;5053175;28;20420;-76
2022/11/17 12:56:55;;;;;;;6.70;1.87;;;17.10;1.00;;;;;;5052910;28;20864;-76
2022/11/17 12:59:43;;;;;;;4.90;1.80;;;16.20;1.00;;;;;;5054826;28;20451;-74
2022/11/17 13:02:37;;;;;;;6.80;1.77;;;15.50;1.00;;;;;;5042805;28;20428;-74
2022/11/17 13:05:17;;;;;;;7.20;1.63;;;15.20;1.00;;;;;;5052318;28;20423;-74
2022/11/17 13:07:43;;;;;;;4.17;1.60;;;14.80;1.00;;;;;;5052800;28;20477;-74
2022/11/17 13:10:28;;;;;;;5.20;1.77;;;14.60;1.00;;;;;;5052699;28;20815;-73
2022/11/17 13:13:19;;;;;;;5.27;1.47;;;14.50;1.00;;;;;;5052736;28;20165;-73
2022/11/17 13:15:57;;;;;;;5.07;1.57;;;14.10;1.00;;;;;;5050349;28;20432;-73
2022/11/17 13:18:31;;;;;;;4.70;1.80;;;14.00;1.00;;;;;;5047489;28;20455;-73
2022/11/17 13:20:58;;;;;;;6.30;1.57;;;13.60;1.00;;;;;;5051332;28;20488;-74
2022/11/17 13:23:28;;;;;;;5.63;1.40;;;13.10;1.00;;;;;;5053198;28;20451;-75
2022/11/17 13:26:29;;;;;;;2.23;1.53;;;13.00;1.00;;;;;;5051828;28;20428;-72
2022/11/17 13:29:06;;;;;;;4.63;1.60;;;13.30;1.00;;;;;;5051947;28;20775;-72
2022/11/17 13:31:32;;;;;;;12.00;1.53;;;14.20;1.00;;;;;;5042724;28;20461;-72
2022/11/17 13:34:15;;;;;;;7.00;1.63;;;14.60;1.00;;;;;;5049591;28;20416;-72
2022/11/17 13:36:56;;;;;;;6.40;2.10;;;14.90;1.00;;;;;;5050729;28;20814;-73
2022/11/17 13:39:21;;;;;;;3.70;1.60;;;15.10;1.00;;;;;;5040158;28;20462;-72
2022/11/17 13:41:48;;;;;;;4.43;1.50;;;15.00;1.00;;;;;;5050009;28;20810;-73
2022/11/17 13:44:19;;;;;;;7.57;1.97;;;14.70;1.00;;;;;;5051113;28;20178;-74
2022/11/17 13:46:44;;;;;;;6.20;1.53;;;14.70;1.00;;;;;;5042067;28;20444;-73
2022/11/17 13:49:30;;;;;;;2.77;1.37;;;14.70;1.00;;;;;;5051017;28;20434;-73